Monday, January 22, 2018, 8:44 AM EST
Back to Local

KDXR, Danbury Municipal Airport

Location: Danbury, CT, United States Lat: 41.367
Local Time: 8:44 AM EST (13:44 GMT) Lon: -73.483
Time Zone: US/Eastern Elev: 459 ft

Show me the last for .
Show Decoded

2018-01-22 07:53 METAR KDXR 221253Z 00000KT 3SM BR BKN006 OVC019 03/02 A3019 RMK AO2 RAB01E21
                 SLP227 P0000 T00330022 $ =
2018-01-22 07:19 METAR KDXR 221219Z 00000KT 4SM -RA BR BKN006 OVC019 03/02 A3018 RMK AO2 RAB01
                 P0000 T00280022 $ =
2018-01-22 06:53 METAR KDXR 221153Z 00000KT 3SM BR OVC020 03/02 A3016 RMK AO2 SLP217 60001 70001
                 T00280017 10028 20022 53006 $ =
2018-01-22 05:53 METAR KDXR 221053Z AUTO 00000KT 3SM BR BKN020 OVC028 03/02 A3015 RMK AO2 SLP211
                 T00280017 $ =
2018-01-22 05:49 METAR KDXR 221049Z AUTO 00000KT 2 1/2SM BR OVC020 03/02 A3015 RMK AO2 $ =
2018-01-22 05:36 METAR KDXR 221036Z AUTO 00000KT 3SM BR OVC020 03/02 A3015 RMK AO2 T00280017 $ =
2018-01-22 05:16 METAR KDXR 221016Z AUTO 00000KT 2 1/2SM BR OVC022 03/02 A3015 RMK AO2 T00280017
                 $ =
2018-01-22 04:53 METAR KDXR 220953Z AUTO 00000KT 3SM BR OVC023 03/02 A3015 RMK AO2 SLP211
                 T00280017 $ =
2018-01-22 04:13 METAR KDXR 220913Z AUTO 00000KT 3SM BR BKN024 OVC030 03/02 A3014 RMK AO2
                 T00280017 $ =
2018-01-22 03:53 METAR KDXR 220853Z AUTO 05003KT 4SM BR SCT022 BKN034 OVC043 03/02 A3015 RMK AO2
                 RAE25 SLP210 P0001 60001 T00280017 58005 $ =
2018-01-22 03:40 METAR KDXR 220840Z AUTO 03004KT 3SM BR FEW029 BKN037 OVC047 03/02 A3014 RMK AO2
                 RAE25 P0001 T00280017 $ =
2018-01-22 03:21 METAR KDXR 220821Z AUTO 00000KT 2SM -RA BR SCT026 BKN036 OVC048 03/02 A3015 RMK
                 AO2 P0001 T00280017 $ =
2018-01-22 03:04 METAR KDXR 220804Z AUTO 00000KT 2SM -RA BR BKN026 OVC034 02/02 A3016 RMK AO2
                 P0001 T00220017 $ =
2018-01-22 02:53 METAR KDXR 220753Z AUTO 00000KT 3SM -RA BR BKN026 OVC034 03/02 A3016 RMK AO2
                 SLP215 P0000 T00280017 $ =
2018-01-22 01:53 METAR KDXR 220653Z AUTO 00000KT 6SM -RA BR OVC035 02/02 A3016 RMK AO2 RAB42
                 SLP215 P0000 T00220017 $ =
2018-01-22 00:53 METAR KDXR 220553Z AUTO 00000KT 6SM BR OVC034 02/01 A3016 RMK AO2 RAE16 SLP216
                 P0000 60000 T00220011 10028 20011 58010 $ =
2018-01-22 00:02 METAR KDXR 220502Z AUTO 00000KT 7SM -RA FEW026 OVC036 02/01 A3018 RMK AO2 P0000
                 T00220011 $ =
2018-01-21 23:53 METAR KDXR 220453Z AUTO 00000KT 9SM -RA BKN028 OVC035 02/01 A3018 RMK AO2 RAB31
                 SLP221 P0000 T00220006 400831050 $ =
2018-01-21 23:04 METAR KDXR 220404Z AUTO 00000KT 8SM BKN023 OVC033 03/00 A3018 RMK AO2 T00280000
                 $ =
2018-01-21 22:53 METAR KDXR 220353Z AUTO 00000KT 10SM SCT025 OVC035 02/00 A3018 RMK AO2 SLP222
                 T00220000 $ =
2018-01-21 21:53 METAR KDXR 220253Z 00000KT 10SM OVC029 02/M01 A3019 RMK AO2 SLP227 T00221006
                 53005 $ =
2018-01-21 20:53 METAR KDXR 220153Z 00000KT 10SM BKN030 OVC037 02/M01 A3018 RMK AO2 SLP223
                 T00221011 $ =
2018-01-21 19:53 METAR KDXR 220053Z 00000KT 10SM FEW034 OVC045 02/M01 A3018 RMK AO2 SLP224
                 T00171011 $ =
2018-01-21 18:53 METAR KDXR 212353Z 00000KT 10SM OVC050 02/M01 A3018 RMK AO2 SLP222 T00221011
                 10083 20006 51016 $ =
2018-01-21 17:53 METAR KDXR 212253Z 22004KT 10SM FEW060 02/M02 A3017 RMK AO2 SLP219 T00171017 $ =
2018-01-21 16:53 METAR KDXR 212153Z 00000KT 10SM CLR 04/M01 A3014 RMK AO2 SLP212 T00391011 $ =
2018-01-21 15:53 METAR KDXR 212053Z 00000KT 10SM CLR 08/M02 A3013 RMK AO2 SLP205 T00831017 55002
                 $ =
2018-01-21 14:53 METAR KDXR 211953Z 24007KT 10SM CLR 08/M01 A3013 RMK AO2 SLP204 T00781006 $ =
2018-01-21 13:53 METAR KDXR 211853Z 28005KT 10SM CLR 08/M01 A3013 RMK AO2 SLP205 T00831011 $ =
2018-01-21 12:53 METAR KDXR 211753Z 00000KT 10SM CLR 08/M01 A3013 RMK AO2 SLP207 T00781011 10078
                 21050 58015 $ =
2018-01-21 11:53 METAR KDXR 211653Z 00000KT 9SM CLR 07/M01 A3016 RMK AO2 SLP215 T00671006 $ =
2018-01-21 10:53 METAR KDXR 211553Z 00000KT 9SM CLR 04/M01 A3018 RMK AO2 SLP223 T00441006 $ =
2018-01-21 09:53 METAR KDXR 211453Z 00000KT 10SM CLR 01/M02 A3018 RMK AO2 SLP224 T00061017 51017
                 $ =
2018-01-21 08:53 METAR KDXR 211353Z 00000KT 9SM CLR M03/M04 A3017 RMK AO2 SLP222 T10281044 $ =

Support USWX by starting your Amazon purchase here.